createdAt,value
2023-02-15T00:01:10.789Z,158.10
2023-02-15T00:04:51.270Z,168.90
2023-02-15T00:08:18.449Z,161.30
2023-02-15T00:11:52.060Z,161.20
2023-02-15T00:15:29.762Z,163.80
2023-02-15T00:19:02.873Z,175.60
2023-02-15T00:22:32.951Z,159.90
2023-02-15T00:26:10.281Z,156.30
2023-02-15T00:29:37.598Z,148.00
2023-02-15T00:33:05.138Z,148.70
2023-02-15T00:36:34.498Z,141.20
2023-02-15T00:40:01.624Z,144.60
2023-02-15T00:43:32.691Z,140.30
2023-02-15T00:46:59.845Z,137.10
2023-02-15T00:50:27.189Z,144.10
2023-02-15T00:53:55.013Z,137.10
2023-02-15T00:57:25.333Z,135.70
2023-02-15T01:00:53.054Z,136.00
2023-02-15T01:04:24.508Z,132.90
2023-02-15T01:07:54.094Z,131.40
2023-02-15T01:11:25.435Z,138.40
2023-02-15T01:14:52.739Z,136.70
2023-02-15T01:18:20.851Z,130.40
2023-02-15T01:21:49.714Z,132.80
2023-02-15T01:25:17.248Z,125.80
2023-02-15T01:28:44.670Z,127.90
2023-02-15T01:32:12.444Z,124.80
2023-02-15T01:35:40.455Z,126.00
2023-02-15T01:39:08.734Z,125.20
2023-02-15T01:42:36.436Z,123.40
2023-02-15T01:46:06.887Z,118.60
2023-02-15T01:49:34.821Z,107.10
2023-02-15T01:53:08.490Z,108.70
2023-02-15T01:56:40.042Z,106.30
2023-02-15T02:00:09.973Z,106.60
2023-02-15T02:03:51.390Z,103.20
2023-02-15T02:07:21.854Z,108.60
2023-02-15T02:10:49.003Z,105.80
2023-02-15T02:14:16.673Z,104.60
2023-02-15T02:17:57.484Z,107.00
2023-02-15T02:22:01.097Z,96.60
2023-02-15T02:25:58.092Z,100.60
2023-02-15T02:30:13.037Z,78.10
2023-02-15T02:33:49.366Z,95.90
2023-02-15T02:37:26.815Z,105.30
2023-02-15T02:40:59.535Z,97.90
2023-02-15T02:44:31.590Z,99.30
2023-02-15T02:48:04.299Z,102.10
2023-02-15T02:51:31.518Z,103.60
2023-02-15T02:55:00.792Z,103.30
2023-02-15T02:58:40.878Z,102.60
2023-02-15T03:02:14.372Z,103.50
2023-02-15T03:05:46.822Z,102.30
2023-02-15T03:09:19.063Z,121.40
2023-02-15T03:12:46.776Z,125.20
2023-02-15T03:16:30.477Z,129.40
2023-02-15T03:20:01.588Z,120.40
2023-02-15T03:23:30.410Z,132.20
2023-02-15T03:27:01.175Z,133.90
2023-02-15T03:30:29.904Z,134.30
2023-02-15T03:37:33.472Z,138.50
2023-02-15T03:41:13.649Z,176.00
2023-02-15T03:44:52.046Z,169.10
2023-02-15T03:48:20.491Z,167.70
2023-02-15T03:51:52.470Z,148.40
2023-02-15T03:55:22.394Z,160.90
2023-02-15T03:59:07.618Z,154.90
2023-02-15T04:02:43.744Z,154.60
2023-02-15T04:06:11.274Z,139.40
2023-02-15T04:09:56.167Z,151.30
2023-02-15T04:13:32.431Z,134.60
2023-02-15T04:16:59.614Z,136.70
2023-02-15T04:20:44.207Z,129.30
2023-02-15T04:24:29.739Z,135.60
2023-02-15T04:27:57.914Z,145.30
2023-02-15T04:31:25.364Z,165.00
2023-02-15T04:34:53.036Z,159.90
2023-02-15T04:38:20.314Z,163.80
2023-02-15T04:41:48.850Z,149.80
2023-02-15T04:45:16.120Z,139.30
2023-02-15T04:48:44.830Z,146.00
2023-02-15T04:52:23.276Z,144.30
2023-02-15T04:55:50.505Z,134.80
2023-02-15T04:59:18.393Z,121.90
2023-02-15T05:02:45.600Z,117.70
2023-02-15T05:06:13.262Z,112.70
2023-02-15T05:09:40.489Z,114.30
2023-02-15T05:13:07.733Z,114.50
2023-02-15T05:16:37.824Z,103.20
2023-02-15T05:20:06.299Z,109.20
2023-02-15T05:23:33.720Z,109.00
2023-02-15T05:27:26.373Z,109.90
2023-02-15T05:31:02.020Z,118.00
2023-02-15T05:34:29.632Z,151.00
2023-02-15T05:37:56.826Z,172.80
2023-02-15T05:41:24.156Z,177.30
2023-02-15T05:44:51.379Z,164.50
2023-02-15T05:48:19.089Z,170.50
2023-02-15T05:51:46.271Z,170.30
2023-02-15T05:55:13.707Z,175.50
2023-02-15T05:58:42.669Z,174.10
2023-02-15T06:02:14.130Z,152.20
2023-02-15T06:05:41.545Z,161.70
2023-02-15T06:09:08.912Z,159.00
2023-02-15T06:12:36.703Z,142.30
2023-02-15T06:16:04.445Z,150.10
2023-02-15T06:19:34.999Z,151.50
2023-02-15T06:23:02.424Z,154.40
2023-02-15T06:26:29.786Z,148.60
2023-02-15T06:29:56.920Z,142.00
2023-02-15T06:33:24.664Z,156.80
2023-02-15T06:36:54.905Z,157.70
2023-02-15T06:40:22.496Z,161.30
2023-02-15T06:43:49.817Z,184.40
2023-02-15T06:47:17.254Z,199.20
2023-02-15T06:50:44.601Z,200.80
2023-02-15T06:54:15.023Z,191.60
2023-02-15T06:57:42.825Z,174.50
2023-02-15T07:01:11.227Z,139.60
2023-02-15T07:04:39.330Z,117.30
2023-02-15T07:08:07.178Z,109.20
2023-02-15T07:11:52.397Z,96.00
2023-02-15T07:15:22.845Z,86.80
2023-02-15T07:18:50.196Z,80.30
2023-02-15T07:22:17.510Z,76.50
2023-02-15T07:29:20.783Z,77.60
2023-02-15T07:33:06.084Z,77.30
2023-02-15T07:36:33.776Z,70.40
2023-02-15T07:40:01.108Z,69.80
2023-02-15T07:43:28.798Z,68.60
2023-02-15T07:46:56.056Z,67.80
2023-02-15T07:50:23.616Z,65.70
2023-02-15T07:53:52.721Z,69.30
2023-02-15T07:57:20.118Z,65.30
2023-02-15T08:01:02.283Z,81.80
2023-02-15T08:04:29.753Z,61.70
2023-02-15T08:07:57.027Z,83.40
2023-02-15T08:11:30.318Z,71.40
2023-02-15T08:14:57.562Z,80.30
2023-02-15T08:18:25.031Z,77.10
2023-02-15T08:21:54.442Z,75.10
2023-02-15T08:25:21.649Z,73.90
2023-02-15T08:28:50.090Z,70.10
2023-02-15T08:32:17.267Z,72.60
2023-02-15T08:35:44.475Z,67.30
2023-02-15T08:39:12.199Z,75.90
2023-02-15T08:42:39.366Z,76.70
2023-02-15T08:46:06.921Z,69.50
2023-02-15T08:49:34.324Z,78.70
2023-02-15T08:53:01.521Z,66.10
2023-02-15T08:56:40.108Z,64.20
2023-02-15T09:00:09.962Z,57.50
2023-02-15T09:03:40.330Z,55.70
2023-02-15T09:07:07.556Z,52.40
2023-02-15T09:10:34.731Z,50.80
2023-02-15T09:14:03.939Z,47.90
2023-02-15T09:17:31.101Z,49.30
2023-02-15T09:20:59.783Z,46.20
2023-02-15T09:24:27.117Z,48.40
2023-02-15T09:27:54.304Z,48.00
2023-02-15T09:31:23.794Z,47.90
2023-02-15T09:34:50.983Z,48.90
2023-02-15T09:38:18.179Z,46.50
2023-02-15T09:42:04.072Z,46.40
2023-02-15T09:45:43.056Z,46.80
2023-02-15T09:49:19.901Z,46.00
2023-02-15T09:53:06.457Z,45.00
2023-02-15T09:56:39.989Z,46.30
2023-02-15T10:00:17.340Z,46.50
2023-02-15T10:04:02.991Z,45.80
2023-02-15T10:07:49.477Z,45.80
2023-02-15T10:11:41.834Z,43.40
2023-02-15T10:15:26.343Z,46.00
2023-02-15T10:19:06.754Z,44.80
2023-02-15T10:22:43.610Z,44.00
2023-02-15T10:26:22.198Z,42.20
2023-02-15T10:30:12.022Z,44.40
2023-02-15T10:33:44.356Z,42.30
2023-02-15T10:37:35.630Z,40.10
2023-02-15T10:41:15.402Z,43.00
2023-02-15T10:48:30.106Z,42.40
2023-02-15T10:52:12.749Z,41.10
2023-02-15T10:55:52.132Z,44.10
2023-02-15T10:59:35.390Z,43.10
2023-02-15T11:03:25.936Z,43.30
2023-02-15T11:06:56.983Z,44.80
2023-02-15T11:10:34.066Z,44.10
2023-02-15T11:14:05.223Z,45.20
2023-02-15T11:17:40.562Z,42.80
2023-02-15T11:21:14.011Z,44.00
2023-02-15T11:24:45.482Z,44.80
2023-02-15T11:28:22.688Z,44.40
2023-02-15T11:31:53.179Z,42.90
2023-02-15T11:35:29.400Z,43.80
2023-02-15T11:39:04.728Z,44.20
2023-02-15T11:42:34.584Z,42.00
2023-02-15T11:46:01.873Z,42.60
2023-02-15T11:49:32.740Z,43.80
2023-02-15T11:53:03.777Z,42.00
2023-02-15T11:56:34.267Z,45.40
2023-02-15T12:00:06.189Z,43.30
2023-02-15T12:03:46.843Z,43.20
2023-02-15T12:07:29.699Z,46.90
2023-02-15T12:11:05.104Z,44.70
2023-02-15T12:14:50.610Z,43.60
2023-02-15T12:18:29.010Z,43.00
2023-02-15T12:21:56.970Z,45.40
2023-02-15T12:25:28.465Z,44.70
2023-02-15T12:28:58.987Z,46.50
2023-02-15T12:32:29.865Z,49.40
2023-02-15T12:36:03.045Z,63.00
2023-02-15T12:39:32.554Z,47.30
2023-02-15T12:43:00.194Z,44.90
2023-02-15T12:46:28.903Z,46.70
2023-02-15T12:50:18.063Z,45.40
2023-02-15T12:53:45.717Z,42.20
2023-02-15T12:57:27.407Z,42.20
2023-02-15T13:01:12.057Z,43.40
2023-02-15T13:04:49.663Z,44.30
2023-02-15T13:08:19.685Z,45.80
2023-02-15T13:11:48.824Z,42.80
2023-02-15T13:15:35.234Z,42.40
2023-02-15T13:19:08.146Z,45.60
2023-02-15T13:22:43.269Z,47.00
2023-02-15T13:26:18.866Z,46.50
2023-02-15T13:29:50.814Z,45.30
2023-02-15T13:33:27.219Z,50.00
2023-02-15T13:37:00.124Z,46.90
2023-02-15T13:40:40.102Z,48.60
2023-02-15T13:44:17.408Z,46.00
2023-02-15T13:47:55.484Z,46.30
2023-02-15T13:51:40.828Z,44.50
2023-02-15T13:55:38.805Z,45.30
2023-02-15T13:59:21.807Z,44.70
2023-02-15T14:03:17.292Z,44.30
2023-02-15T14:07:00.898Z,45.60
2023-02-15T14:10:49.236Z,47.20
2023-02-15T14:14:58.817Z,44.10
2023-02-15T14:18:32.166Z,44.60
2023-02-15T14:22:09.492Z,45.50
2023-02-15T14:25:43.467Z,44.60
2023-02-15T14:29:25.169Z,47.40
2023-02-15T14:32:56.160Z,45.10
2023-02-15T14:36:25.117Z,44.90
2023-02-15T14:40:17.590Z,43.90
2023-02-15T14:43:58.928Z,45.50
2023-02-15T14:47:34.012Z,41.40
2023-02-15T14:51:02.527Z,45.50
2023-02-15T14:54:59.840Z,43.20
2023-02-15T14:58:27.166Z,47.00
2023-02-15T15:02:05.978Z,44.20
2023-02-15T15:05:48.120Z,44.30
2023-02-15T15:09:22.811Z,45.30
2023-02-15T15:12:51.044Z,44.20
2023-02-15T15:16:53.935Z,39.60
2023-02-15T15:20:51.757Z,40.70
2023-02-15T15:24:52.057Z,40.80
2023-02-15T15:28:49.481Z,39.30
2023-02-15T15:32:27.909Z,37.40
2023-02-15T15:36:16.424Z,39.40
2023-02-15T15:40:21.739Z,40.30
2023-02-15T15:44:22.362Z,41.00
2023-02-15T15:48:10.881Z,41.50
2023-02-15T15:51:44.493Z,39.90
2023-02-15T15:55:20.239Z,41.00
2023-02-15T15:58:52.524Z,39.90
2023-02-15T16:02:24.622Z,42.40
2023-02-15T16:09:25.065Z,39.70
2023-02-15T16:12:53.424Z,43.70
2023-02-15T16:16:28.858Z,41.00
2023-02-15T16:20:00.845Z,43.50
2023-02-15T16:24:00.694Z,43.00
2023-02-15T16:31:17.150Z,45.80
2023-02-15T16:34:55.006Z,48.40
2023-02-15T16:38:24.096Z,56.00
2023-02-15T16:41:56.539Z,53.70
2023-02-15T16:45:28.357Z,57.00
2023-02-15T16:49:00.970Z,58.10
2023-02-15T16:52:32.010Z,58.20
2023-02-15T16:56:01.785Z,60.50
2023-02-15T16:59:43.285Z,60.30
2023-02-15T17:03:25.892Z,58.10
2023-02-15T17:07:05.440Z,58.80
2023-02-15T17:10:37.280Z,57.40
2023-02-15T17:14:31.158Z,58.10
2023-02-15T17:18:02.581Z,58.30
2023-02-15T17:21:34.471Z,58.30
2023-02-15T17:25:05.534Z,61.10
2023-02-15T17:28:34.359Z,61.10
2023-02-15T17:32:02.912Z,62.20
2023-02-15T17:35:32.242Z,58.70
2023-02-15T17:39:20.653Z,57.20
2023-02-15T17:42:47.936Z,58.90
2023-02-15T17:46:17.238Z,60.10
2023-02-15T17:49:44.904Z,62.20
2023-02-15T17:53:13.698Z,65.80
2023-02-15T17:56:41.792Z,69.10
2023-02-15T18:00:32.503Z,72.70
2023-02-15T18:04:17.514Z,64.00
2023-02-15T18:08:02.771Z,63.70
2023-02-15T18:11:37.625Z,69.70
2023-02-15T18:15:05.537Z,78.60
2023-02-15T18:18:32.793Z,100.90
2023-02-15T18:22:00.097Z,101.70
2023-02-15T18:25:27.395Z,100.50
2023-02-15T18:28:54.953Z,111.20
2023-02-15T18:32:32.725Z,107.40
2023-02-15T18:36:00.091Z,112.70
2023-02-15T18:39:37.946Z,100.50
2023-02-15T18:43:05.524Z,95.50
2023-02-15T18:46:32.782Z,90.50
2023-02-15T18:50:00.467Z,93.00
2023-02-15T18:53:28.148Z,88.80
2023-02-15T18:56:58.521Z,91.60
2023-02-15T19:00:28.396Z,88.50
2023-02-15T19:03:55.840Z,92.50
2023-02-15T19:07:26.223Z,89.90
2023-02-15T19:10:54.047Z,98.90
2023-02-15T19:14:30.933Z,96.40
2023-02-15T19:17:58.702Z,101.60
2023-02-15T19:21:28.130Z,102.10
2023-02-15T19:24:57.031Z,115.70
2023-02-15T19:28:30.643Z,95.60
2023-02-15T19:31:58.596Z,90.80
2023-02-15T19:35:28.501Z,91.90
2023-02-15T19:38:57.140Z,95.20
2023-02-15T19:42:25.582Z,102.40
2023-02-15T19:45:53.232Z,115.80
2023-02-15T19:49:20.450Z,143.70
2023-02-15T19:52:48.314Z,116.70
2023-02-15T19:56:23.545Z,108.80
2023-02-15T19:59:50.930Z,111.10
2023-02-15T20:03:18.549Z,115.60
2023-02-15T20:06:46.414Z,117.60
2023-02-15T20:10:22.455Z,116.40
2023-02-15T20:13:52.316Z,119.10
2023-02-15T20:17:20.069Z,117.60
2023-02-15T20:20:49.533Z,113.10
2023-02-15T20:24:20.152Z,123.20
2023-02-15T20:27:47.479Z,124.10
2023-02-15T20:31:17.655Z,123.40
2023-02-15T20:34:44.987Z,119.50
2023-02-15T20:38:19.679Z,118.40
2023-02-15T20:41:49.964Z,114.40
2023-02-15T20:45:22.358Z,116.10
2023-02-15T20:48:52.774Z,118.20
2023-02-15T20:52:22.264Z,117.70
2023-02-15T20:59:26.101Z,105.30
2023-02-15T21:02:56.151Z,107.10
2023-02-15T21:06:23.739Z,105.70
2023-02-15T21:09:52.495Z,108.70
2023-02-15T21:13:26.265Z,102.40
2023-02-15T21:17:04.847Z,102.40
2023-02-15T21:20:34.562Z,91.20
2023-02-15T21:27:27.498Z,84.60
2023-02-15T21:31:04.276Z,84.50
2023-02-15T21:34:31.839Z,82.20
2023-02-15T21:37:59.205Z,74.90
2023-02-15T21:41:46.774Z,69.70
2023-02-15T21:45:36.654Z,66.20
2023-02-15T21:49:04.726Z,65.50
2023-02-15T21:52:31.924Z,65.90
2023-02-15T21:56:00.918Z,67.30
2023-02-15T21:59:39.219Z,62.20
2023-02-15T22:03:09.388Z,64.10
2023-02-15T22:06:37.080Z,61.70
2023-02-15T22:10:05.021Z,60.00
2023-02-15T22:13:34.961Z,63.60
2023-02-15T22:17:18.899Z,62.30
2023-02-15T22:20:51.361Z,66.50
2023-02-15T22:24:30.246Z,63.40
2023-02-15T22:27:58.362Z,63.10
2023-02-15T22:31:26.265Z,64.40
2023-02-15T22:34:54.598Z,71.30
2023-02-15T22:38:21.951Z,68.80
2023-02-15T22:45:23.126Z,62.30
2023-02-15T22:48:51.605Z,68.10
2023-02-15T22:52:19.214Z,67.40
2023-02-15T22:55:47.066Z,69.20
2023-02-15T22:59:21.704Z,70.40
2023-02-15T23:03:20.288Z,66.20
2023-02-15T23:06:51.704Z,66.40
2023-02-15T23:10:24.283Z,70.80
2023-02-15T23:13:52.034Z,70.50
2023-02-15T23:17:19.436Z,67.30
2023-02-15T23:20:47.253Z,67.20
2023-02-15T23:24:20.405Z,67.70
2023-02-15T23:28:00.038Z,70.20
2023-02-15T23:31:30.248Z,69.30
2023-02-15T23:34:57.596Z,66.00
2023-02-15T23:38:29.571Z,64.30
2023-02-15T23:41:57.080Z,66.50
2023-02-15T23:45:26.514Z,60.30
2023-02-15T23:52:20.140Z,57.90
2023-02-15T23:55:50.220Z,63.30
2023-02-15T23:59:20.820Z,61.70
